createdAt,value
2019-03-12T00:00:30.091Z,1005.69
2019-03-12T00:01:31.016Z,1005.78
2019-03-12T00:02:30.049Z,1005.85
2019-03-12T00:03:30.034Z,1005.91
2019-03-12T00:04:30.026Z,1005.91
2019-03-12T00:05:30.017Z,1005.95
2019-03-12T00:06:30.032Z,1006.02
2019-03-12T00:07:30.005Z,1006.01
2019-03-12T00:08:29.978Z,1006.09
2019-03-12T00:09:29.975Z,1006.12
2019-03-12T00:10:29.980Z,1006.13
2019-03-12T00:11:29.946Z,1006.15
2019-03-12T00:12:29.934Z,1006.17
2019-03-12T00:13:29.926Z,1006.23
2019-03-12T00:14:29.922Z,1006.21
2019-03-12T00:15:29.926Z,1006.26
2019-03-12T00:17:28.882Z,1006.25
2019-03-12T00:18:29.877Z,1006.23
2019-03-12T00:19:29.864Z,1006.24
2019-03-12T00:20:29.881Z,1006.29
2019-03-12T00:21:29.834Z,1006.31
2019-03-12T00:22:29.836Z,1006.32
2019-03-12T00:23:29.822Z,1006.31
2019-03-12T00:24:29.880Z,1006.33
2019-03-12T00:25:29.808Z,1006.28
2019-03-12T00:26:29.791Z,1006.37
2019-03-12T00:27:29.773Z,1006.39
2019-03-12T00:28:29.768Z,1006.40
2019-03-12T00:29:29.758Z,1006.31
2019-03-12T00:30:29.739Z,1006.40
2019-03-12T00:31:29.728Z,1006.40
2019-03-12T00:32:29.742Z,1006.42
2019-03-12T00:33:29.710Z,1006.44
2019-03-12T00:34:29.694Z,1006.46
2019-03-12T00:35:29.686Z,1006.46
2019-03-12T00:36:29.677Z,1006.50
2019-03-12T00:37:29.698Z,1006.52
2019-03-12T00:38:29.656Z,1006.57
2019-03-12T00:39:29.644Z,1006.54
2019-03-12T00:40:29.628Z,1006.57
2019-03-12T00:41:29.620Z,1006.53
2019-03-12T00:42:29.614Z,1006.54
2019-03-12T00:43:30.044Z,1006.59
2019-03-12T00:44:29.612Z,1006.50
2019-03-12T00:45:29.584Z,1006.59
2019-03-12T00:46:29.581Z,1006.53
2019-03-12T00:47:29.558Z,1006.51
2019-03-12T00:48:29.545Z,1006.61
2019-03-12T00:49:32.505Z,1006.58
2019-03-12T00:50:29.538Z,1006.56
2019-03-12T00:51:29.529Z,1006.59
2019-03-12T00:52:29.506Z,1006.59
2019-03-12T00:53:29.526Z,1006.72
2019-03-12T00:54:29.488Z,1006.66
2019-03-12T00:55:29.470Z,1006.70
2019-03-12T00:56:29.461Z,1006.71
2019-03-12T00:58:28.482Z,1006.74
2019-03-12T00:59:29.431Z,1006.74
2019-03-12T01:00:29.422Z,1006.78
2019-03-12T01:01:29.414Z,1006.87
2019-03-12T01:02:29.399Z,1006.89
2019-03-12T01:03:29.656Z,1006.88
2019-03-12T01:04:29.374Z,1006.92
2019-03-12T01:05:29.357Z,1006.93
2019-03-12T01:06:29.352Z,1006.90
2019-03-12T01:07:29.340Z,1006.89
2019-03-12T01:08:29.327Z,1006.88
2019-03-12T01:09:29.344Z,1006.88
2019-03-12T01:10:29.335Z,1006.93
2019-03-12T01:11:29.299Z,1006.93
2019-03-12T01:12:29.281Z,1006.97
2019-03-12T01:13:29.282Z,1006.96
2019-03-12T01:14:29.272Z,1006.98
2019-03-12T01:15:29.249Z,1007.04
2019-03-12T01:16:29.275Z,1007.02
2019-03-12T01:17:29.232Z,1007.01
2019-03-12T01:18:29.224Z,1007.05
2019-03-12T01:19:29.235Z,1007.03
2019-03-12T01:20:31.995Z,1007.03
2019-03-12T01:21:29.191Z,1007.01
2019-03-12T01:22:29.181Z,1007.05
2019-03-12T01:23:29.176Z,1007.00
2019-03-12T01:24:29.166Z,1007.05
2019-03-12T01:25:29.181Z,1007.02
2019-03-12T01:26:29.146Z,1007.04
2019-03-12T01:27:29.126Z,1007.06
2019-03-12T01:28:29.120Z,1007.09
2019-03-12T01:29:29.115Z,1007.08
2019-03-12T01:30:29.093Z,1007.09
2019-03-12T01:31:29.115Z,1007.08
2019-03-12T01:33:28.063Z,1007.04
2019-03-12T01:34:29.051Z,1007.05
2019-03-12T01:35:29.041Z,1007.06
2019-03-12T01:36:29.041Z,1007.12
2019-03-12T01:37:29.043Z,1007.17
2019-03-12T01:38:29.006Z,1007.19
2019-03-12T01:39:29.000Z,1007.26
2019-03-12T01:40:28.990Z,1007.27
2019-03-12T01:41:28.985Z,1007.29
2019-03-12T01:42:28.959Z,1007.29
2019-03-12T01:43:28.990Z,1007.38
2019-03-12T01:44:29.479Z,1007.37
2019-03-12T01:45:29.488Z,1007.42
2019-03-12T01:46:28.923Z,1007.44
2019-03-12T01:47:28.914Z,1007.42
2019-03-12T01:48:31.480Z,1007.46
2019-03-12T01:49:29.007Z,1007.47
2019-03-12T01:50:28.869Z,1007.45
2019-03-12T01:51:31.195Z,1007.55
2019-03-12T01:52:28.852Z,1007.52
2019-03-12T01:53:28.843Z,1007.53
2019-03-12T01:54:28.827Z,1007.49
2019-03-12T01:55:28.859Z,1007.55
2019-03-12T01:56:28.839Z,1007.53
2019-03-12T01:57:28.798Z,1007.50
2019-03-12T01:58:28.787Z,1007.56
2019-03-12T01:59:28.778Z,1007.51
2019-03-12T02:00:28.765Z,1007.52
2019-03-12T02:01:31.475Z,1007.49
2019-03-12T02:02:29.473Z,1007.57
2019-03-12T02:03:28.730Z,1007.58
2019-03-12T02:04:28.724Z,1007.53
2019-03-12T02:05:28.713Z,1007.56
2019-03-12T02:06:31.471Z,1007.57
2019-03-12T02:07:28.696Z,1007.61
2019-03-12T02:08:28.725Z,1007.61
2019-03-12T02:09:28.683Z,1007.62
2019-03-12T02:10:28.655Z,1007.63
2019-03-12T02:11:28.736Z,1007.69
2019-03-12T02:12:28.639Z,1007.70
2019-03-12T02:13:28.624Z,1007.70
2019-03-12T02:14:29.468Z,1007.73
2019-03-12T02:15:28.606Z,1007.72
2019-03-12T02:16:28.625Z,1007.76
2019-03-12T02:17:28.584Z,1007.77
2019-03-12T02:18:28.573Z,1007.77
2019-03-12T02:19:28.563Z,1007.81
2019-03-12T02:20:28.553Z,1007.82
2019-03-12T02:21:28.543Z,1007.84
2019-03-12T02:22:28.565Z,1007.88
2019-03-12T02:23:29.127Z,1007.91
2019-03-12T02:24:28.507Z,1007.91
2019-03-12T02:25:28.531Z,1007.92
2019-03-12T02:26:28.492Z,1007.92
2019-03-12T02:27:28.485Z,1007.92
2019-03-12T02:28:28.468Z,1007.95
2019-03-12T02:29:28.452Z,1007.95
2019-03-12T02:30:28.445Z,1007.94
2019-03-12T02:31:28.462Z,1007.99
2019-03-12T02:32:28.418Z,1008.02
2019-03-12T02:33:28.412Z,1007.98
2019-03-12T02:34:28.410Z,1008.06
2019-03-12T02:35:28.392Z,1008.01
2019-03-12T02:36:28.376Z,1008.05
2019-03-12T02:37:28.395Z,1008.04
2019-03-12T02:38:28.353Z,1008.06
2019-03-12T02:39:28.342Z,1008.03
2019-03-12T02:40:28.344Z,1008.10
2019-03-12T02:41:28.328Z,1008.08
2019-03-12T02:42:28.311Z,1008.11
2019-03-12T02:43:28.340Z,1008.12
2019-03-12T02:44:28.291Z,1008.09
2019-03-12T02:45:28.276Z,1008.12
2019-03-12T02:46:28.265Z,1008.17
2019-03-12T02:47:28.259Z,1008.22
2019-03-12T02:48:28.299Z,1008.23
2019-03-12T02:49:28.964Z,1008.23
2019-03-12T02:50:28.223Z,1008.25
2019-03-12T02:51:28.217Z,1008.12
2019-03-12T02:52:28.205Z,1008.17
2019-03-12T02:53:28.192Z,1008.17
2019-03-12T02:54:28.963Z,1008.16
2019-03-12T02:55:28.172Z,1008.18
2019-03-12T02:56:28.159Z,1008.19
2019-03-12T02:57:28.152Z,1008.19
2019-03-12T02:58:28.176Z,1008.23
2019-03-12T02:59:28.131Z,1008.24
2019-03-12T03:00:28.146Z,1008.26
2019-03-12T03:01:28.118Z,1008.27
2019-03-12T03:02:30.965Z,1008.29
2019-03-12T03:03:28.083Z,1008.32
2019-03-12T03:04:28.072Z,1008.32
2019-03-12T03:05:28.064Z,1008.33
2019-03-12T03:06:28.076Z,1008.36
2019-03-12T03:07:28.039Z,1008.45
2019-03-12T03:08:28.957Z,1008.44
2019-03-12T03:09:28.023Z,1008.47
2019-03-12T03:10:28.016Z,1008.47
2019-03-12T03:11:28.001Z,1008.49
2019-03-12T03:12:27.984Z,1008.47
2019-03-12T03:13:27.978Z,1008.53
2019-03-12T03:14:28.004Z,1008.51
2019-03-12T03:15:27.963Z,1008.54
2019-03-12T03:16:27.937Z,1008.58
2019-03-12T03:17:27.936Z,1008.61
2019-03-12T03:18:27.920Z,1008.58
2019-03-12T03:19:27.909Z,1008.64
2019-03-12T03:20:28.496Z,1008.63
2019-03-12T03:21:27.893Z,1008.67
2019-03-12T03:22:27.880Z,1008.63
2019-03-12T03:23:28.456Z,1008.66
2019-03-12T03:24:27.860Z,1008.67
2019-03-12T03:25:27.879Z,1008.66
2019-03-12T03:26:27.833Z,1008.65
2019-03-12T03:27:29.581Z,1008.69
2019-03-12T03:28:27.814Z,1008.65
2019-03-12T03:29:30.447Z,1008.66
2019-03-12T03:30:27.872Z,1008.65
2019-03-12T03:32:26.864Z,1008.67
2019-03-12T03:33:33.972Z,1008.67
2019-03-12T03:34:48.755Z,1008.69
2019-03-12T03:35:27.747Z,1008.68
2019-03-12T03:36:27.730Z,1008.65
2019-03-12T03:37:27.722Z,1008.67
2019-03-12T03:38:27.710Z,1008.68
2019-03-12T03:39:27.719Z,1008.66
2019-03-12T03:40:30.445Z,1008.65
2019-03-12T03:41:27.698Z,1008.63
2019-03-12T03:42:27.667Z,1008.65
2019-03-12T03:43:27.660Z,1008.64
2019-03-12T03:44:30.444Z,1008.66
2019-03-12T03:45:27.626Z,1008.67
2019-03-12T03:46:30.442Z,1008.64
2019-03-12T03:47:27.634Z,1008.69
2019-03-12T03:48:27.601Z,1008.66
2019-03-12T03:49:27.587Z,1008.61
2019-03-12T03:50:27.590Z,1008.57
2019-03-12T03:52:26.568Z,1008.59
2019-03-12T03:53:27.576Z,1008.58
2019-03-12T03:54:27.622Z,1008.55
2019-03-12T03:55:27.516Z,1008.49
2019-03-12T03:56:27.507Z,1008.56
2019-03-12T03:57:27.502Z,1008.53
2019-03-12T03:58:27.494Z,1008.52
2019-03-12T03:59:27.512Z,1008.57
2019-03-12T04:00:27.465Z,1008.56
2019-03-12T04:01:27.447Z,1008.62
2019-03-12T04:02:27.440Z,1008.62
2019-03-12T04:03:27.436Z,1008.62
2019-03-12T04:04:29.939Z,1008.61
2019-03-12T04:05:29.939Z,1008.68
2019-03-12T04:06:27.405Z,1008.64
2019-03-12T04:07:27.418Z,1008.69
2019-03-12T04:08:27.383Z,1008.69
2019-03-12T04:09:27.370Z,1008.67
2019-03-12T04:10:27.358Z,1008.70
2019-03-12T04:11:29.937Z,1008.67
2019-03-12T04:12:27.333Z,1008.65
2019-03-12T04:13:27.324Z,1008.67
2019-03-12T04:14:27.320Z,1008.65
2019-03-12T04:15:27.308Z,1008.64
2019-03-12T04:16:27.320Z,1008.64
2019-03-12T04:17:27.282Z,1008.69
2019-03-12T04:18:27.318Z,1008.69
2019-03-12T04:19:27.252Z,1008.70
2019-03-12T04:20:27.254Z,1008.67
2019-03-12T04:21:27.244Z,1008.69
2019-03-12T04:22:27.248Z,1008.66
2019-03-12T04:23:27.213Z,1008.71
2019-03-12T04:24:27.211Z,1008.73
2019-03-12T04:25:27.190Z,1008.70
2019-03-12T04:26:27.188Z,1008.70
2019-03-12T04:27:27.172Z,1008.75
2019-03-12T04:28:27.191Z,1008.73
2019-03-12T04:29:27.149Z,1008.72
2019-03-12T04:30:27.143Z,1008.70
2019-03-12T04:31:27.133Z,1008.74
2019-03-12T04:33:26.140Z,1008.73
2019-03-12T04:34:27.093Z,1008.75
2019-03-12T04:35:27.086Z,1008.76
2019-03-12T04:36:27.926Z,1008.73
2019-03-12T04:37:27.060Z,1008.79
2019-03-12T04:38:27.086Z,1008.78
2019-03-12T04:39:27.051Z,1008.75
2019-03-12T04:40:27.924Z,1008.76
2019-03-12T04:41:27.024Z,1008.77
2019-03-12T04:42:27.010Z,1008.81
2019-03-12T04:43:27.020Z,1008.81
2019-03-12T04:44:26.995Z,1008.84
2019-03-12T04:45:26.977Z,1008.82
2019-03-12T04:46:26.962Z,1008.85
2019-03-12T04:47:26.955Z,1008.83
2019-03-12T04:48:26.953Z,1008.83
2019-03-12T04:49:26.932Z,1008.86
2019-03-12T04:50:26.927Z,1008.86
2019-03-12T04:51:26.910Z,1008.87
2019-03-12T04:52:26.904Z,1008.84
2019-03-12T04:53:26.892Z,1008.86
2019-03-12T04:54:26.884Z,1008.87
2019-03-12T04:55:26.870Z,1008.86
2019-03-12T04:56:26.865Z,1008.89
2019-03-12T04:57:26.846Z,1008.90
2019-03-12T04:58:26.835Z,1008.90
2019-03-12T04:59:26.828Z,1008.83
2019-03-12T05:00:32.916Z,1008.82
2019-03-12T05:01:26.813Z,1008.80
2019-03-12T05:02:26.796Z,1008.76
2019-03-12T05:03:26.779Z,1008.74
2019-03-12T05:04:26.792Z,1008.73
2019-03-12T05:05:26.800Z,1008.67
2019-03-12T05:06:26.780Z,1008.66
2019-03-12T05:07:26.740Z,1008.65
2019-03-12T05:08:26.729Z,1008.66
2019-03-12T05:09:26.721Z,1008.69
2019-03-12T05:10:26.701Z,1008.64
2019-03-12T05:11:26.694Z,1008.65
2019-03-12T05:12:26.728Z,1008.63
2019-03-12T05:13:26.684Z,1008.67
2019-03-12T05:14:26.751Z,1008.68
2019-03-12T05:15:26.650Z,1008.72
2019-03-12T05:16:26.638Z,1008.68
2019-03-12T05:17:26.641Z,1008.71
2019-03-12T05:18:26.645Z,1008.69
2019-03-12T05:19:26.606Z,1008.69
2019-03-12T05:20:26.596Z,1008.72
2019-03-12T05:21:26.585Z,1008.72
2019-03-12T05:22:26.573Z,1008.70
2019-03-12T05:23:26.564Z,1008.71
2019-03-12T05:24:26.586Z,1008.77
2019-03-12T05:25:26.550Z,1008.75
2019-03-12T05:26:26.540Z,1008.78
2019-03-12T05:27:26.542Z,1008.75
2019-03-12T05:28:26.590Z,1008.77
2019-03-12T05:29:26.505Z,1008.83
2019-03-12T05:30:26.518Z,1008.82
2019-03-12T05:31:26.480Z,1008.80
2019-03-12T05:32:26.467Z,1008.82
2019-03-12T05:33:26.459Z,1008.84
2019-03-12T05:34:26.440Z,1008.84
2019-03-12T05:35:26.438Z,1008.87
2019-03-12T05:36:26.449Z,1008.90
2019-03-12T05:37:26.413Z,1008.84
2019-03-12T05:38:26.950Z,1008.88
2019-03-12T05:39:26.423Z,1008.91
2019-03-12T05:40:28.906Z,1008.88
2019-03-12T05:41:28.904Z,1008.92
2019-03-12T05:42:26.362Z,1008.95
2019-03-12T05:43:26.346Z,1008.99
2019-03-12T05:44:28.904Z,1008.99
2019-03-12T05:45:26.356Z,1009.02
2019-03-12T05:46:26.312Z,1009.03
2019-03-12T05:47:26.316Z,1009.05
2019-03-12T05:48:26.298Z,1009.05
2019-03-12T05:49:26.288Z,1009.06
2019-03-12T05:50:26.904Z,1009.07
2019-03-12T05:51:26.262Z,1009.12
2019-03-12T05:52:26.252Z,1009.16
2019-03-12T05:54:25.236Z,1009.18
2019-03-12T05:55:26.226Z,1009.21
2019-03-12T05:56:26.208Z,1009.22
2019-03-12T05:57:26.194Z,1009.27
2019-03-12T05:58:26.191Z,1009.27
2019-03-12T06:00:25.239Z,1009.28
2019-03-12T06:01:26.158Z,1009.28
2019-03-12T06:02:26.142Z,1009.22
2019-03-12T06:03:26.132Z,1009.25
2019-03-12T06:04:26.124Z,1009.24
2019-03-12T06:05:26.130Z,1009.26
2019-03-12T06:06:26.096Z,1009.25
2019-03-12T06:07:26.094Z,1009.20
2019-03-12T06:08:26.078Z,1009.25
2019-03-12T06:09:30.384Z,1009.27
2019-03-12T06:10:26.081Z,1009.24
2019-03-12T06:11:26.043Z,1009.29
2019-03-12T06:12:26.036Z,1009.21
2019-03-12T06:13:26.032Z,1009.25
2019-03-12T06:14:26.014Z,1009.25
2019-03-12T06:15:26.895Z,1009.23
2019-03-12T06:16:25.990Z,1009.28
2019-03-12T06:17:25.982Z,1009.25
2019-03-12T06:18:25.972Z,1009.21
2019-03-12T06:19:25.963Z,1009.26
2019-03-12T06:20:25.952Z,1009.24
2019-03-12T06:21:25.970Z,1009.24
2019-03-12T06:22:25.924Z,1009.27
2019-03-12T06:23:25.914Z,1009.22
2019-03-12T06:24:26.293Z,1009.26
2019-03-12T06:25:26.748Z,1009.26
2019-03-12T06:26:26.574Z,1009.26
2019-03-12T06:27:25.868Z,1009.25
2019-03-12T06:28:26.053Z,1009.23
2019-03-12T06:29:26.222Z,1009.22
2019-03-12T06:30:27.120Z,1009.19
2019-03-12T06:31:25.953Z,1009.15
2019-03-12T06:32:25.941Z,1009.18
2019-03-12T06:33:25.896Z,1009.17
2019-03-12T06:34:25.793Z,1009.10
2019-03-12T06:35:25.928Z,1009.13
2019-03-12T06:36:25.773Z,1009.15
2019-03-12T06:37:25.791Z,1009.18
2019-03-12T06:38:26.387Z,1009.21
2019-03-12T06:39:25.748Z,1009.22
2019-03-12T06:40:28.390Z,1009.22
2019-03-12T06:41:25.718Z,1009.22
2019-03-12T06:42:25.709Z,1009.24
2019-03-12T06:43:25.723Z,1009.28
2019-03-12T06:44:25.686Z,1009.21
2019-03-12T06:45:25.676Z,1009.27
2019-03-12T06:46:25.704Z,1009.22
2019-03-12T06:47:25.657Z,1009.22
2019-03-12T06:48:28.384Z,1009.20
2019-03-12T06:49:25.713Z,1009.22
2019-03-12T06:50:25.626Z,1009.25
2019-03-12T06:51:25.608Z,1009.25
2019-03-12T06:52:25.628Z,1009.18
2019-03-12T06:53:25.593Z,1009.17
2019-03-12T06:54:25.581Z,1009.21
2019-03-12T06:55:25.568Z,1009.18
2019-03-12T06:57:27.378Z,1009.21
2019-03-12T06:58:25.540Z,1009.19
2019-03-12T06:59:25.573Z,1009.23
2019-03-12T07:00:25.505Z,1009.20
2019-03-12T07:01:25.500Z,1009.17
2019-03-12T07:02:26.378Z,1009.16
2019-03-12T07:03:28.382Z,1009.18
2019-03-12T07:04:25.487Z,1009.17
2019-03-12T07:05:25.486Z,1009.18
2019-03-12T07:06:25.446Z,1009.20
2019-03-12T07:07:25.447Z,1009.23
2019-03-12T07:08:25.426Z,1009.18
2019-03-12T07:09:28.380Z,1009.26
2019-03-12T07:11:24.416Z,1009.18
2019-03-12T07:12:25.389Z,1009.15
2019-03-12T07:13:25.878Z,1009.11
2019-03-12T07:14:25.380Z,1009.13
2019-03-12T07:16:24.346Z,1009.10
2019-03-12T07:17:25.323Z,1009.06
2019-03-12T07:18:25.318Z,1009.14
2019-03-12T07:19:25.307Z,1009.14
2019-03-12T07:20:25.327Z,1009.10
2019-03-12T07:21:25.320Z,1009.16
2019-03-12T07:22:25.272Z,1009.16
2019-03-12T07:23:25.263Z,1009.20
2019-03-12T07:24:25.254Z,1009.22
2019-03-12T07:25:25.262Z,1009.18
2019-03-12T07:26:25.366Z,1009.24
2019-03-12T07:27:25.221Z,1009.25
2019-03-12T07:28:25.209Z,1009.17
2019-03-12T07:29:25.194Z,1009.25
2019-03-12T07:30:25.195Z,1009.14
2019-03-12T07:31:25.246Z,1009.20
2019-03-12T07:32:25.206Z,1009.15
2019-03-12T07:33:25.154Z,1009.17
2019-03-12T07:34:36.184Z,1009.18
2019-03-12T07:35:25.128Z,1009.20
2019-03-12T07:36:25.118Z,1009.20
2019-03-12T07:37:25.112Z,1009.20
2019-03-12T07:38:25.220Z,1009.13
2019-03-12T07:39:25.088Z,1009.11
2019-03-12T07:40:25.085Z,1009.12
2019-03-12T07:41:32.401Z,1009.12
2019-03-12T07:42:25.060Z,1009.10
2019-03-12T07:43:25.047Z,1009.14
2019-03-12T07:44:25.079Z,1009.14
2019-03-12T07:45:25.038Z,1009.13
2019-03-12T07:46:25.047Z,1009.09
2019-03-12T07:47:35.250Z,1009.13
2019-03-12T07:48:25.010Z,1009.16
2019-03-12T07:49:24.997Z,1009.10
2019-03-12T07:50:24.968Z,1009.08
2019-03-12T07:51:24.977Z,1009.08
2019-03-12T07:52:24.977Z,1009.05
2019-03-12T07:53:24.939Z,1009.08
2019-03-12T07:54:24.934Z,1009.09
2019-03-12T07:55:24.942Z,1009.05
2019-03-12T07:56:24.908Z,1009.09
2019-03-12T07:57:24.894Z,1009.06
2019-03-12T07:58:35.316Z,1009.09
2019-03-12T07:59:24.876Z,1009.05
2019-03-12T08:00:24.897Z,1009.07
2019-03-12T08:01:25.165Z,1009.10
2019-03-12T08:02:24.845Z,1009.08
2019-03-12T08:03:24.835Z,1009.05
2019-03-12T08:04:24.821Z,1009.05
2019-03-12T08:05:27.949Z,1009.02
2019-03-12T08:06:24.837Z,1009.05
2019-03-12T08:07:24.828Z,1009.06
2019-03-12T08:08:24.780Z,1009.07
2019-03-12T08:09:24.767Z,1009.03
2019-03-12T08:10:24.754Z,1009.04
2019-03-12T08:11:24.751Z,1009.05
2019-03-12T08:12:24.765Z,1009.06
2019-03-12T08:13:24.721Z,1009.06
2019-03-12T08:14:26.913Z,1009.03
2019-03-12T08:15:24.700Z,1009.11
2019-03-12T08:16:24.691Z,1009.07
2019-03-12T08:17:24.803Z,1009.01
2019-03-12T08:18:24.669Z,1009.00
2019-03-12T08:19:24.657Z,1009.04
2019-03-12T08:20:24.648Z,1009.00
2019-03-12T08:21:24.642Z,1009.02
2019-03-12T08:22:24.627Z,1008.97
2019-03-12T08:23:24.648Z,1008.95
2019-03-12T08:24:24.606Z,1008.96
2019-03-12T08:25:24.590Z,1008.91
2019-03-12T08:26:24.585Z,1008.94
2019-03-12T08:27:26.078Z,1008.94
2019-03-12T08:28:24.588Z,1008.95
2019-03-12T08:29:24.545Z,1008.95
2019-03-12T08:30:24.543Z,1009.01
2019-03-12T08:31:24.529Z,1008.98
2019-03-12T08:32:24.519Z,1008.95
2019-03-12T08:33:24.499Z,1008.97
2019-03-12T08:34:24.522Z,1009.00
2019-03-12T08:35:24.488Z,1008.96
2019-03-12T08:36:24.473Z,1008.92
2019-03-12T08:37:24.569Z,1008.89
2019-03-12T08:38:24.453Z,1008.91
2019-03-12T08:39:24.438Z,1008.95
2019-03-12T08:40:24.471Z,1008.92
2019-03-12T08:41:24.419Z,1008.91
2019-03-12T08:42:24.441Z,1008.93
2019-03-12T08:43:24.388Z,1008.94
2019-03-12T08:44:26.370Z,1009.01
2019-03-12T08:45:24.373Z,1009.01
2019-03-12T08:46:24.384Z,1009.00
2019-03-12T08:47:24.364Z,1009.03
2019-03-12T08:48:24.366Z,1008.96
2019-03-12T08:49:24.335Z,1008.99
2019-03-12T08:50:24.317Z,1008.99
2019-03-12T08:51:24.305Z,1008.94
2019-03-12T08:52:24.299Z,1008.96
2019-03-12T08:53:24.294Z,1008.95
2019-03-12T08:54:24.315Z,1008.94
2019-03-12T08:55:24.265Z,1008.93
2019-03-12T08:56:24.250Z,1008.88
2019-03-12T08:57:24.243Z,1008.89
2019-03-12T08:58:24.265Z,1008.88
2019-03-12T08:59:24.221Z,1008.85
2019-03-12T09:00:24.327Z,1008.89
2019-03-12T09:01:24.211Z,1008.88
2019-03-12T09:02:24.183Z,1008.83
2019-03-12T09:03:24.198Z,1008.88
2019-03-12T09:04:24.372Z,1008.87
2019-03-12T09:05:24.157Z,1008.86
2019-03-12T09:06:24.145Z,1008.85
2019-03-12T09:07:24.841Z,1008.77
2019-03-12T09:08:24.120Z,1008.79
2019-03-12T09:09:24.112Z,1008.81
2019-03-12T09:10:24.182Z,1008.76
2019-03-12T09:11:24.090Z,1008.74
2019-03-12T09:12:24.231Z,1008.72
2019-03-12T09:13:24.062Z,1008.68
2019-03-12T09:14:24.058Z,1008.71
2019-03-12T09:15:24.039Z,1008.69
2019-03-12T09:16:24.078Z,1008.69
2019-03-12T09:17:24.027Z,1008.73
2019-03-12T09:18:24.012Z,1008.77
2019-03-12T09:19:24.005Z,1008.68
2019-03-12T09:20:26.838Z,1008.73
2019-03-12T09:21:23.977Z,1008.70
2019-03-12T09:22:23.992Z,1008.73
2019-03-12T09:23:23.955Z,1008.70
2019-03-12T09:24:23.942Z,1008.72
2019-03-12T09:25:23.967Z,1008.68
2019-03-12T09:26:23.929Z,1008.70
2019-03-12T09:27:23.910Z,1008.60
2019-03-12T09:28:23.895Z,1008.72
2019-03-12T09:29:23.890Z,1008.68
2019-03-12T09:30:23.881Z,1008.65
2019-03-12T09:31:23.889Z,1008.66
2019-03-12T09:32:23.851Z,1008.65
2019-03-12T09:33:23.847Z,1008.66
2019-03-12T09:34:23.828Z,1008.70
2019-03-12T09:35:23.818Z,1008.68
2019-03-12T09:36:23.809Z,1008.71
2019-03-12T09:37:23.820Z,1008.64
2019-03-12T09:38:23.785Z,1008.71
2019-03-12T09:39:23.778Z,1008.66
2019-03-12T09:40:23.771Z,1008.69
2019-03-12T09:41:23.753Z,1008.68
2019-03-12T09:42:23.769Z,1008.69
2019-03-12T09:43:23.736Z,1008.60
2019-03-12T09:44:23.722Z,1008.63
2019-03-12T09:45:23.715Z,1008.59
2019-03-12T09:46:23.695Z,1008.61
2019-03-12T09:47:23.693Z,1008.60
2019-03-12T09:48:23.705Z,1008.63
2019-03-12T09:49:23.675Z,1008.66
2019-03-12T09:50:23.657Z,1008.65
2019-03-12T09:51:23.652Z,1008.57
2019-03-12T09:52:23.632Z,1008.59
2019-03-12T09:53:23.657Z,1008.55
2019-03-12T09:54:23.640Z,1008.54
2019-03-12T09:55:23.601Z,1008.54
2019-03-12T09:56:23.590Z,1008.56
2019-03-12T09:57:23.626Z,1008.51
2019-03-12T09:58:23.557Z,1008.52
2019-03-12T09:59:23.589Z,1008.41
2019-03-12T10:00:23.551Z,1008.42
2019-03-12T10:01:23.541Z,1008.44
2019-03-12T10:02:23.529Z,1008.39
2019-03-12T10:03:23.513Z,1008.43
2019-03-12T10:04:23.637Z,1008.42
2019-03-12T10:05:23.530Z,1008.43
2019-03-12T10:06:23.513Z,1008.34
2019-03-12T10:07:23.465Z,1008.37
2019-03-12T10:08:23.464Z,1008.33
2019-03-12T10:09:23.447Z,1008.31
2019-03-12T10:10:23.473Z,1008.31
2019-03-12T10:11:23.424Z,1008.33
2019-03-12T10:12:23.409Z,1008.39
2019-03-12T10:13:23.431Z,1008.38
2019-03-12T10:14:23.394Z,1008.35
2019-03-12T10:15:23.383Z,1008.27
2019-03-12T10:16:23.491Z,1008.32
2019-03-12T10:17:23.362Z,1008.27
2019-03-12T10:18:23.351Z,1008.27
2019-03-12T10:19:23.333Z,1008.29
2019-03-12T10:20:23.325Z,1008.28
2019-03-12T10:21:23.324Z,1008.26
2019-03-12T10:22:23.356Z,1008.27
2019-03-12T10:23:23.381Z,1008.33
2019-03-12T10:24:23.301Z,1008.23
2019-03-12T10:25:23.274Z,1008.23
2019-03-12T10:26:23.257Z,1008.21
2019-03-12T10:27:23.247Z,1008.17
2019-03-12T10:28:23.292Z,1008.13
2019-03-12T10:29:23.234Z,1008.12
2019-03-12T10:30:23.217Z,1008.07
2019-03-12T10:31:23.212Z,1008.11
2019-03-12T10:32:23.620Z,1008.07
2019-03-12T10:33:23.186Z,1008.00
2019-03-12T10:34:29.511Z,1008.01
2019-03-12T10:35:23.235Z,1008.03
2019-03-12T10:36:23.293Z,1008.00
2019-03-12T10:37:23.137Z,1007.95
2019-03-12T10:38:23.164Z,1007.94
2019-03-12T10:39:23.157Z,1007.89
2019-03-12T10:40:23.111Z,1007.92
2019-03-12T10:41:23.093Z,1007.90
2019-03-12T10:42:23.083Z,1007.88
2019-03-12T10:43:23.077Z,1007.85
2019-03-12T10:44:23.087Z,1007.90
2019-03-12T10:45:23.081Z,1007.81
2019-03-12T10:46:23.033Z,1007.80
2019-03-12T10:47:23.031Z,1007.74
2019-03-12T10:48:23.053Z,1007.76
2019-03-12T10:49:23.009Z,1007.74
2019-03-12T10:50:22.999Z,1007.71
2019-03-12T10:51:23.016Z,1007.65
2019-03-12T10:52:22.970Z,1007.68
2019-03-12T10:53:22.986Z,1007.63
2019-03-12T10:54:22.957Z,1007.57
2019-03-12T10:55:23.408Z,1007.57
2019-03-12T10:56:22.935Z,1007.55
2019-03-12T10:57:22.936Z,1007.55
2019-03-12T10:58:22.917Z,1007.51
2019-03-12T10:59:22.900Z,1007.57
2019-03-12T11:00:22.900Z,1007.51
2019-03-12T11:01:22.921Z,1007.44
2019-03-12T11:02:22.893Z,1007.47
2019-03-12T11:03:22.857Z,1007.41
2019-03-12T11:04:22.849Z,1007.40
2019-03-12T11:05:22.839Z,1007.41
2019-03-12T11:06:22.824Z,1007.37
2019-03-12T11:07:22.853Z,1007.33
2019-03-12T11:08:22.803Z,1007.35
2019-03-12T11:09:22.792Z,1007.36
2019-03-12T11:10:22.782Z,1007.38
2019-03-12T11:11:22.758Z,1007.32
2019-03-12T11:12:22.758Z,1007.35
2019-03-12T11:13:22.784Z,1007.33
2019-03-12T11:14:22.919Z,1007.44
2019-03-12T11:15:22.725Z,1007.32
2019-03-12T11:16:22.713Z,1007.29
2019-03-12T11:17:22.702Z,1007.38
2019-03-12T11:18:22.721Z,1007.34
2019-03-12T11:19:22.676Z,1007.34
2019-03-12T11:20:22.682Z,1007.34
2019-03-12T11:21:22.661Z,1007.27
2019-03-12T11:22:22.646Z,1007.31
2019-03-12T11:24:21.645Z,1007.32
2019-03-12T11:25:27.826Z,1007.25
2019-03-12T11:26:22.606Z,1007.26
2019-03-12T11:27:22.591Z,1007.25
2019-03-12T11:28:22.581Z,1007.22
2019-03-12T11:29:22.608Z,1007.22
2019-03-12T11:30:22.642Z,1007.16
2019-03-12T11:31:22.555Z,1007.15
2019-03-12T11:32:22.548Z,1007.07
2019-03-12T11:33:22.523Z,1007.10
2019-03-12T11:34:22.510Z,1007.11
2019-03-12T11:35:22.548Z,1007.03
2019-03-12T11:36:22.574Z,1007.03
2019-03-12T11:37:22.870Z,1007.04
2019-03-12T11:38:22.554Z,1007.07
2019-03-12T11:39:22.466Z,1006.92
2019-03-12T11:40:22.456Z,1006.90
2019-03-12T11:41:22.435Z,1006.95
2019-03-12T11:43:21.449Z,1006.92
2019-03-12T11:44:22.411Z,1006.90
2019-03-12T11:45:35.676Z,1006.88
2019-03-12T11:46:22.407Z,1006.88
2019-03-12T11:47:22.382Z,1006.80
2019-03-12T11:48:22.440Z,1006.84
2019-03-12T11:49:22.377Z,1006.89
2019-03-12T11:50:22.372Z,1006.82
2019-03-12T11:51:22.363Z,1006.77
2019-03-12T11:52:22.350Z,1006.71
2019-03-12T11:53:22.338Z,1006.74
2019-03-12T11:54:22.336Z,1006.68
2019-03-12T11:56:21.380Z,1006.64
2019-03-12T11:57:22.260Z,1006.65
2019-03-12T11:58:22.257Z,1006.61
2019-03-12T11:59:22.268Z,1006.64
2019-03-12T12:00:22.233Z,1006.55
2019-03-12T12:01:22.225Z,1006.46
2019-03-12T12:02:22.210Z,1006.45
2019-03-12T12:03:22.200Z,1006.39
2019-03-12T12:04:22.223Z,1006.41
2019-03-12T12:05:22.179Z,1006.36
2019-03-12T12:06:22.593Z,1006.33
2019-03-12T12:07:22.152Z,1006.32
2019-03-12T12:08:22.347Z,1006.25
2019-03-12T12:09:22.164Z,1006.25
2019-03-12T12:10:22.165Z,1006.23
2019-03-12T12:11:22.107Z,1006.17
2019-03-12T12:12:22.128Z,1006.17
2019-03-12T12:13:22.855Z,1006.19
2019-03-12T12:14:22.078Z,1006.17
2019-03-12T12:15:22.072Z,1006.18
2019-03-12T12:16:22.056Z,1006.23
2019-03-12T12:17:22.093Z,1006.21
2019-03-12T12:18:22.039Z,1006.16
2019-03-12T12:19:22.024Z,1006.13